createdAt,value
2022-10-13T00:02:32.827Z,26.77
2022-10-13T00:07:34.342Z,27.35
2022-10-13T00:12:39.241Z,21.90
2022-10-13T00:17:41.811Z,20.52
2022-10-13T00:22:43.212Z,18.58
2022-10-13T00:27:44.712Z,19.98
2022-10-13T00:32:46.142Z,17.88
2022-10-13T00:37:47.566Z,21.13
2022-10-13T00:42:48.945Z,18.73
2022-10-13T00:47:55.952Z,19.30
2022-10-13T00:53:00.611Z,20.50
2022-10-13T00:58:05.720Z,29.30
2022-10-13T01:03:07.210Z,22.38
2022-10-13T01:08:10.921Z,26.08
2022-10-13T01:13:44.853Z,28.75
2022-10-13T01:19:03.677Z,23.55
2022-10-13T01:24:36.024Z,23.02
2022-10-13T01:29:56.257Z,21.55
2022-10-13T01:35:16.907Z,32.60
2022-10-13T01:40:20.999Z,30.35
2022-10-13T01:45:29.257Z,31.55
2022-10-13T01:50:33.005Z,29.33
2022-10-13T01:55:34.568Z,38.40
2022-10-13T02:00:46.476Z,32.22
2022-10-13T02:06:17.975Z,28.33
2022-10-13T02:11:22.098Z,30.40
2022-10-13T02:16:25.814Z,31.42
2022-10-13T02:21:31.178Z,29.30
2022-10-13T02:26:35.395Z,33.25
2022-10-13T02:31:39.395Z,30.98
2022-10-13T02:36:42.320Z,24.92
2022-10-13T02:41:46.718Z,29.27
2022-10-13T02:46:48.630Z,37.95
2022-10-13T02:51:53.181Z,23.88
2022-10-13T02:56:54.716Z,27.23
2022-10-13T03:01:56.834Z,27.50
2022-10-13T03:07:04.971Z,26.40
2022-10-13T03:12:06.963Z,25.80
2022-10-13T03:17:12.551Z,24.92
2022-10-13T03:22:15.596Z,33.78
2022-10-13T03:27:18.860Z,27.33
2022-10-13T03:32:23.467Z,25.00
2022-10-13T03:37:29.191Z,21.98
2022-10-13T03:42:32.778Z,23.73
2022-10-13T03:47:53.983Z,22.58
2022-10-13T03:52:57.622Z,30.42
2022-10-13T03:58:03.366Z,28.35
2022-10-13T04:03:12.772Z,23.30
2022-10-13T04:08:15.907Z,22.52
2022-10-13T04:13:19.753Z,24.90
2022-10-13T04:18:22.153Z,23.40
2022-10-13T04:23:27.205Z,22.77
2022-10-13T04:28:44.927Z,24.25
2022-10-13T04:33:46.436Z,27.38
2022-10-13T04:38:48.396Z,21.58
2022-10-13T04:43:50.962Z,24.55
2022-10-13T04:48:55.508Z,26.08
2022-10-13T04:53:58.789Z,25.10
2022-10-13T04:59:00.658Z,26.98
2022-10-13T05:04:04.892Z,25.33
2022-10-13T05:09:06.416Z,27.42
2022-10-13T05:14:07.939Z,24.73
2022-10-13T05:19:13.190Z,25.42
2022-10-13T05:24:16.183Z,27.50
2022-10-13T05:29:18.321Z,29.65
2022-10-13T05:34:19.825Z,23.70
2022-10-13T05:39:21.444Z,34.13
2022-10-13T05:44:28.767Z,29.58
2022-10-13T05:49:30.567Z,21.92
2022-10-13T05:54:46.787Z,30.27
2022-10-13T05:59:53.621Z,27.85
2022-10-13T06:05:01.664Z,25.33
2022-10-13T06:10:03.359Z,28.17
2022-10-13T06:15:08.547Z,28.90
2022-10-13T06:20:16.782Z,28.85
2022-10-13T06:25:18.346Z,31.77
2022-10-13T06:30:19.821Z,25.48
2022-10-13T06:35:24.392Z,38.60
2022-10-13T06:40:25.883Z,28.73
2022-10-13T06:45:27.317Z,33.38
2022-10-13T06:50:29.622Z,32.20
2022-10-13T06:55:31.109Z,27.13
2022-10-13T07:00:32.572Z,27.25
2022-10-13T07:05:34.012Z,31.80
2022-10-13T07:10:38.671Z,31.60
2022-10-13T07:15:41.135Z,30.42
2022-10-13T07:20:42.747Z,33.72
2022-10-13T07:25:44.193Z,36.08
2022-10-13T07:30:45.612Z,19.92
2022-10-13T07:35:47.240Z,22.33
2022-10-13T07:40:48.746Z,22.73
2022-10-13T07:45:50.304Z,24.80
2022-10-13T07:50:51.765Z,34.20
2022-10-13T07:55:53.346Z,26.63
2022-10-13T08:00:59.493Z,30.08
2022-10-13T08:06:03.716Z,29.83
2022-10-13T08:11:10.638Z,31.13
2022-10-13T08:16:14.054Z,33.22
2022-10-13T08:26:39.593Z,38.20
2022-10-13T08:31:43.296Z,34.35
2022-10-13T08:36:44.980Z,34.75
2022-10-13T08:41:46.767Z,31.20
2022-10-13T08:46:59.898Z,26.90
2022-10-13T08:52:05.079Z,27.23
2022-10-13T08:57:09.274Z,32.95
2022-10-13T09:02:22.761Z,25.10
2022-10-13T09:07:32.746Z,31.40
2022-10-13T09:12:34.412Z,26.85
2022-10-13T09:17:38.898Z,34.00
2022-10-13T09:22:40.576Z,30.38
2022-10-13T09:27:55.210Z,31.35
2022-10-13T09:33:09.173Z,31.08
2022-10-13T09:38:14.256Z,31.80
2022-10-13T09:43:34.405Z,27.17
2022-10-13T09:48:37.927Z,24.77
2022-10-13T09:53:40.964Z,29.38
2022-10-13T09:58:59.354Z,26.90
2022-10-13T10:04:04.701Z,25.75
2022-10-13T10:09:29.949Z,21.33
2022-10-13T10:14:35.484Z,21.77
2022-10-13T10:26:04.437Z,24.88
2022-10-13T10:31:26.295Z,24.30
2022-10-13T10:36:37.524Z,32.70
2022-10-13T10:41:49.642Z,22.90
2022-10-13T10:47:09.822Z,30.58
2022-10-13T10:52:23.554Z,37.47
2022-10-13T10:57:49.573Z,20.45
2022-10-13T11:03:20.422Z,20.83
2022-10-13T11:08:47.099Z,20.00
2022-10-13T11:14:06.901Z,18.40
2022-10-13T11:19:09.980Z,17.13
2022-10-13T11:24:34.117Z,17.65
2022-10-13T11:29:59.567Z,24.83
2022-10-13T11:35:05.560Z,25.58
2022-10-13T11:40:36.398Z,19.00
2022-10-13T11:45:52.680Z,24.58
2022-10-13T11:51:16.605Z,25.10
2022-10-13T11:56:21.037Z,20.75
2022-10-13T12:01:22.774Z,22.50
2022-10-13T12:06:35.025Z,22.63
2022-10-13T12:11:37.744Z,27.48
2022-10-13T12:16:51.706Z,28.30
2022-10-13T12:22:00.766Z,32.92
2022-10-13T12:27:35.968Z,32.15
2022-10-13T12:32:37.424Z,27.63
2022-10-13T12:37:39.863Z,26.20
2022-10-13T12:42:42.422Z,26.02
2022-10-13T12:47:44.012Z,24.77
2022-10-13T12:52:45.514Z,29.92
2022-10-13T12:57:50.113Z,26.00
2022-10-13T13:02:55.863Z,25.48
2022-10-13T13:07:58.147Z,22.55
2022-10-13T13:13:14.310Z,29.60
2022-10-13T13:18:36.653Z,24.38
2022-10-13T13:23:38.525Z,29.33
2022-10-13T13:28:49.235Z,24.13
2022-10-13T13:33:51.302Z,22.73
2022-10-13T13:38:53.813Z,27.67
2022-10-13T13:43:55.250Z,22.55
2022-10-13T13:48:57.807Z,25.70
2022-10-13T13:53:59.326Z,29.60
2022-10-13T13:59:00.768Z,23.30
2022-10-13T14:04:03.126Z,24.48
2022-10-13T14:09:05.089Z,28.05
2022-10-13T14:14:06.520Z,23.48
2022-10-13T14:19:08.804Z,22.85
2022-10-13T14:24:10.847Z,23.52
2022-10-13T14:29:12.251Z,24.90
2022-10-13T14:34:13.926Z,24.00
2022-10-13T14:39:15.376Z,23.67
2022-10-13T14:44:17.053Z,24.70
2022-10-13T14:49:18.652Z,29.35
2022-10-13T14:54:20.112Z,23.60
2022-10-13T14:59:21.691Z,22.85
2022-10-13T15:04:23.195Z,26.33
2022-10-13T15:09:45.449Z,26.38
2022-10-13T15:14:57.699Z,26.08
2022-10-13T15:20:05.068Z,27.70
2022-10-13T15:25:09.933Z,28.13
2022-10-13T15:30:16.513Z,26.10
2022-10-13T15:35:18.061Z,26.27
2022-10-13T15:40:24.972Z,24.73
2022-10-13T15:45:36.812Z,25.63
2022-10-13T15:50:47.489Z,24.63
2022-10-13T15:55:52.215Z,30.13
2022-10-13T16:00:57.914Z,23.38
2022-10-13T16:06:08.600Z,29.48
2022-10-13T16:11:15.083Z,22.00
2022-10-13T16:21:25.785Z,25.83
2022-10-13T16:26:35.405Z,30.15
2022-10-13T16:31:42.543Z,27.55
2022-10-13T16:36:46.827Z,31.75
2022-10-13T16:41:48.326Z,31.08
2022-10-13T16:46:52.122Z,94.57
2022-10-13T16:51:55.038Z,33.97
2022-10-13T16:57:01.689Z,34.17
2022-10-13T17:02:13.267Z,30.35
2022-10-13T17:07:19.754Z,28.80
2022-10-13T17:12:24.597Z,32.88
2022-10-13T17:17:29.371Z,33.47
2022-10-13T17:22:34.139Z,33.30
2022-10-13T17:27:43.783Z,37.67
2022-10-13T17:32:46.687Z,36.75
2022-10-13T17:37:57.868Z,37.47
2022-10-13T17:42:59.402Z,39.45
2022-10-13T17:48:24.311Z,37.10
2022-10-13T17:53:27.367Z,38.30
2022-10-13T17:58:31.992Z,38.45
2022-10-13T18:09:08.470Z,32.25
2022-10-13T18:14:14.522Z,39.70
2022-10-13T18:19:21.171Z,36.85
2022-10-13T18:24:27.633Z,37.55
2022-10-13T18:29:38.361Z,39.05
2022-10-13T18:34:45.573Z,38.95
2022-10-13T18:59:04.134Z,24.48
2022-10-13T19:04:08.957Z,22.65
2022-10-13T19:09:23.153Z,21.77
2022-10-13T19:14:29.661Z,22.45
2022-10-13T19:19:43.256Z,23.08
2022-10-13T19:24:55.769Z,19.23
2022-10-13T19:29:57.424Z,19.38
2022-10-13T19:35:01.901Z,23.80
2022-10-13T19:40:05.918Z,18.77
2022-10-13T19:45:36.966Z,20.63
2022-10-13T19:50:45.889Z,18.42
2022-10-13T19:55:51.425Z,21.52
2022-10-13T20:00:59.666Z,20.08
2022-10-13T20:06:08.072Z,23.70
2022-10-13T20:11:12.615Z,20.30
2022-10-13T20:16:25.322Z,23.30
2022-10-13T20:26:50.271Z,21.25
2022-10-13T20:31:51.893Z,20.63
2022-10-13T20:36:56.090Z,21.40
2022-10-13T20:42:11.269Z,20.95
2022-10-13T20:47:22.849Z,21.25
2022-10-13T20:52:33.422Z,26.08
2022-10-13T20:57:39.544Z,21.63
2022-10-13T21:02:42.665Z,21.17
2022-10-13T21:07:44.423Z,23.23
2022-10-13T21:13:00.838Z,26.42
2022-10-13T21:18:04.133Z,20.67
2022-10-13T21:23:19.049Z,24.52
2022-10-13T21:28:34.017Z,25.83
2022-10-13T21:33:44.816Z,28.70
2022-10-13T21:38:55.693Z,29.60
2022-10-13T21:44:04.009Z,26.25
2022-10-13T21:49:06.256Z,35.95
2022-10-13T21:54:20.606Z,37.15
2022-10-13T21:59:34.730Z,40.28
2022-10-13T22:04:39.838Z,46.20
2022-10-13T22:09:41.596Z,42.83
2022-10-13T22:14:46.320Z,46.97
2022-10-13T22:19:54.983Z,43.05
2022-10-13T22:24:56.522Z,43.90
2022-10-13T22:30:01.131Z,54.25
2022-10-13T22:35:05.907Z,46.72
2022-10-13T22:40:13.026Z,52.50
2022-10-13T22:45:25.744Z,56.17
2022-10-13T22:50:28.835Z,63.28
2022-10-13T22:55:35.049Z,64.07
2022-10-13T23:00:38.551Z,82.57
2022-10-13T23:05:48.463Z,81.22
2022-10-13T23:10:54.738Z,89.28
2022-10-13T23:16:12.625Z,203.55
2022-10-13T23:21:18.252Z,67.47
2022-10-13T23:26:26.455Z,66.37
2022-10-13T23:31:31.604Z,118.80
2022-10-13T23:36:33.311Z,134.95
2022-10-13T23:41:34.871Z,205.18
2022-10-13T23:46:36.470Z,165.07
2022-10-13T23:51:37.874Z,62.63
2022-10-13T23:56:39.344Z,78.97
